Time;durP1;ratioP1;P1;durP2;ratioP2;P2;SDS_P1;SDS_P2;PMS_P1;PMS_P2;Temp;Humidity;BMP_temperature;BMP_pressure;BME280_temperature;BME280_humidity;BME280_pressure;Samples;Min_cycle;Max_cycle;Signal;HPM_P1;HPM_P2
2024/03/01 00:01:52;;;;;;;13.80;8.53;;;6.40;99.90;;;;;;5055165;28;20163;-70
2024/03/01 00:04:19;;;;;;;12.53;8.53;;;6.30;99.90;;;;;;5054998;28;20194;-69
2024/03/01 00:06:45;;;;;;;15.67;9.27;;;6.30;99.90;;;;;;5053706;28;20428;-70
2024/03/01 00:09:10;;;;;;;22.23;10.80;;;6.20;99.90;;;;;;5055092;28;20458;-71
2024/03/01 00:11:36;;;;;;;20.47;10.00;;;6.20;99.90;;;;;;5055395;28;20168;-71
2024/03/01 00:14:01;;;;;;;19.70;9.50;;;6.10;99.90;;;;;;5054988;28;20541;-71
2024/03/01 00:16:28;;;;;;;17.43;9.67;;;6.00;99.90;;;;;;5054963;28;20170;-70
2024/03/01 00:18:53;;;;;;;18.17;9.93;;;6.10;99.90;;;;;;5054990;28;20263;-70
2024/03/01 00:21:19;;;;;;;21.70;11.20;;;6.10;99.90;;;;;;5054807;28;20536;-71
2024/03/01 00:23:45;;;;;;;19.67;9.63;;;6.30;99.90;;;;;;5054838;28;20240;-70
2024/03/01 00:26:11;;;;;;;17.57;9.70;;;6.30;99.90;;;;;;5054831;28;20174;-71
2024/03/01 00:28:37;;;;;;;16.70;9.77;;;6.40;99.90;;;;;;5054668;28;20425;-70
2024/03/01 00:31:03;;;;;;;19.13;9.00;;;6.30;99.90;;;;;;5054773;28;20704;-71
2024/03/01 00:33:29;;;;;;;16.93;8.70;;;6.40;99.90;;;;;;5052220;28;20417;-71
2024/03/01 00:35:54;;;;;;;14.53;8.50;;;6.50;99.90;;;;;;5051129;28;20486;-71
2024/03/01 00:38:20;;;;;;;13.93;9.00;;;6.50;99.90;;;;;;5054504;28;20193;-71
2024/03/01 00:40:46;;;;;;;16.73;9.37;;;6.50;99.90;;;;;;5054478;28;20245;-71
2024/03/01 00:43:11;;;;;;;11.10;8.20;;;6.60;99.90;;;;;;5054447;28;20177;-70
2024/03/01 00:45:37;;;;;;;15.90;9.23;;;6.60;99.90;;;;;;5054480;28;20173;-70
2024/03/01 00:48:10;;;;;;;12.10;8.87;;;6.60;99.90;;;;;;5054388;28;20198;-71
2024/03/01 00:50:36;;;;;;;18.30;8.77;;;6.70;99.90;;;;;;5054395;28;20266;-70
2024/03/01 00:53:03;;;;;;;14.57;8.50;;;6.80;99.90;;;;;;5054159;28;20426;-71
2024/03/01 00:55:30;;;;;;;15.10;7.60;;;6.90;99.90;;;;;;5054330;28;20433;-70
2024/03/01 00:57:55;;;;;;;19.50;9.23;;;6.90;99.90;;;;;;5054161;28;20421;-70
2024/03/01 01:00:21;;;;;;;16.10;9.03;;;6.90;99.90;;;;;;5054115;28;20559;-70
2024/03/01 01:02:47;;;;;;;19.47;9.87;;;6.90;99.90;;;;;;5050481;28;20175;-71
2024/03/01 01:05:12;;;;;;;18.60;8.30;;;7.00;99.90;;;;;;5052998;28;20417;-70
2024/03/01 01:07:38;;;;;;;22.00;12.67;;;6.90;99.90;;;;;;5053024;28;20298;-70
2024/03/01 01:10:04;;;;;;;15.87;10.23;;;7.00;99.90;;;;;;5054054;28;20178;-70
2024/03/01 01:12:30;;;;;;;16.90;9.50;;;7.00;99.90;;;;;;5053958;28;20174;-69
2024/03/01 01:14:56;;;;;;;15.13;8.80;;;6.90;99.90;;;;;;5053972;28;20410;-70
2024/03/01 01:17:22;;;;;;;14.63;7.60;;;7.00;99.90;;;;;;5053816;28;20990;-70
2024/03/01 01:19:47;;;;;;;22.00;10.77;;;7.00;99.90;;;;;;5053762;28;20195;-69
2024/03/01 01:22:13;;;;;;;20.23;7.67;;;7.10;99.90;;;;;;5053603;28;20159;-70
2024/03/01 01:24:38;;;;;;;21.43;9.60;;;7.10;99.90;;;;;;5053853;28;20576;-70
2024/03/01 01:27:04;;;;;;;13.47;9.03;;;7.00;99.90;;;;;;5053621;28;20271;-70
2024/03/01 01:29:30;;;;;;;18.90;8.60;;;7.00;99.90;;;;;;5053712;28;20167;-70
2024/03/01 01:31:55;;;;;;;17.50;9.20;;;7.00;99.90;;;;;;5052398;28;20653;-69
2024/03/01 01:34:21;;;;;;;13.10;9.40;;;7.00;99.90;;;;;;5053490;28;20171;-70
2024/03/01 01:36:46;;;;;;;17.17;8.43;;;6.90;99.90;;;;;;5049982;28;20202;-70
2024/03/01 01:39:12;;;;;;;16.10;9.33;;;6.90;99.90;;;;;;5053177;28;20183;-69
2024/03/01 01:41:38;;;;;;;15.13;9.17;;;7.00;99.90;;;;;;5053190;28;20553;-70
2024/03/01 01:44:04;;;;;;;16.27;10.10;;;7.10;99.90;;;;;;5053217;28;20168;-69
2024/03/01 01:46:29;;;;;;;14.03;8.10;;;7.00;99.90;;;;;;5053431;28;20574;-69
2024/03/01 01:48:56;;;;;;;15.13;8.20;;;7.00;99.90;;;;;;5053299;28;20171;-70
2024/03/01 01:51:22;;;;;;;19.10;10.27;;;7.00;99.90;;;;;;5052153;28;20182;-70
2024/03/01 01:53:48;;;;;;;20.20;9.60;;;7.00;99.90;;;;;;5052950;28;20793;-70
2024/03/01 01:56:14;;;;;;;18.60;9.47;;;7.00;99.90;;;;;;5053306;28;20409;-70
2024/03/01 01:58:41;;;;;;;22.27;11.50;;;7.10;99.90;;;;;;5053220;28;20270;-70
2024/03/01 02:01:08;;;;;;;18.13;10.13;;;7.00;99.90;;;;;;5053078;28;20453;-69
2024/03/01 02:03:40;;;;;;;18.30;10.23;;;7.00;99.90;;;;;;5048244;28;20425;-69
2024/03/01 02:06:06;;;;;;;16.53;9.20;;;7.00;99.90;;;;;;5050543;28;20496;-70
2024/03/01 02:08:35;;;;;;;15.53;9.53;;;7.00;99.90;;;;;;5052836;28;20464;-69
2024/03/01 02:11:02;;;;;;;20.87;9.80;;;6.90;99.90;;;;;;5052819;28;20413;-69
2024/03/01 02:13:28;;;;;;;19.00;9.57;;;6.80;99.90;;;;;;5052559;28;20409;-70
2024/03/01 02:15:54;;;;;;;16.43;8.70;;;6.80;99.90;;;;;;5052867;28;20451;-69
2024/03/01 02:18:21;;;;;;;12.53;7.97;;;6.80;99.90;;;;;;5052603;28;20521;-70
2024/03/01 02:21:00;;;;;;;17.10;8.77;;;6.70;99.90;;;;;;5052647;28;20491;-70
2024/03/01 02:23:27;;;;;;;18.30;9.27;;;6.60;99.90;;;;;;5052182;28;20496;-70
2024/03/01 02:25:53;;;;;;;16.17;9.03;;;6.70;99.90;;;;;;5052525;28;20405;-70
2024/03/01 02:28:18;;;;;;;18.17;9.90;;;6.60;99.90;;;;;;5052555;28;20499;-69
2024/03/01 02:30:44;;;;;;;16.53;9.77;;;6.60;99.90;;;;;;5052688;28;20717;-70
2024/03/01 02:33:10;;;;;;;19.57;9.80;;;6.60;99.90;;;;;;5052277;28;20262;-70
2024/03/01 02:35:36;;;;;;;21.20;11.17;;;6.60;99.90;;;;;;5052645;28;20171;-70
2024/03/01 02:38:02;;;;;;;15.80;10.23;;;6.60;99.90;;;;;;5050535;28;20539;-69
2024/03/01 02:40:27;;;;;;;18.03;9.60;;;6.60;99.90;;;;;;5053740;28;20203;-70
2024/03/01 02:42:53;;;;;;;17.00;9.83;;;6.60;99.90;;;;;;5052053;28;20627;-70
2024/03/01 02:45:18;;;;;;;16.83;9.73;;;6.60;99.90;;;;;;5052408;28;20167;-69
2024/03/01 02:47:44;;;;;;;16.10;8.90;;;6.70;99.90;;;;;;5052095;28;20191;-69
2024/03/01 02:50:09;;;;;;;18.90;10.07;;;6.70;99.90;;;;;;5052313;28;20177;-70
2024/03/01 02:52:35;;;;;;;17.37;8.70;;;6.70;99.90;;;;;;5051675;28;20550;-70
2024/03/01 02:55:02;;;;;;;19.30;10.27;;;6.70;99.90;;;;;;5052124;28;20186;-69
2024/03/01 02:57:28;;;;;;;16.03;8.83;;;6.60;99.90;;;;;;5052097;28;20657;-69
2024/03/01 02:59:54;;;;;;;24.57;10.50;;;6.60;99.90;;;;;;5051923;28;20456;-69
2024/03/01 03:02:20;;;;;;;17.13;10.23;;;6.60;99.90;;;;;;5051834;28;20401;-69
2024/03/01 03:04:46;;;;;;;19.43;10.00;;;6.60;99.90;;;;;;5045412;28;20201;-69
2024/03/01 03:07:11;;;;;;;19.67;9.90;;;6.50;99.90;;;;;;5051795;28;20437;-69
2024/03/01 03:09:43;;;;;;;18.17;10.80;;;6.50;99.90;;;;;;5052169;28;20166;-70
2024/03/01 03:12:10;;;;;;;16.60;10.60;;;6.60;99.90;;;;;;5050511;28;20669;-69
2024/03/01 03:14:36;;;;;;;26.80;10.40;;;6.60;99.90;;;;;;5051988;28;20437;-70
2024/03/01 03:17:06;;;;;;;19.60;9.77;;;6.70;99.90;;;;;;5051847;28;21039;-70
2024/03/01 03:19:32;;;;;;;19.77;10.23;;;6.70;99.90;;;;;;5052101;28;20900;-69
2024/03/01 03:21:58;;;;;;;21.47;11.70;;;6.70;99.90;;;;;;5050706;28;20409;-70
2024/03/01 03:24:23;;;;;;;18.30;10.70;;;6.80;99.90;;;;;;5051697;28;20892;-70
2024/03/01 03:26:49;;;;;;;19.37;12.00;;;6.80;99.90;;;;;;5051857;28;20189;-69
2024/03/01 03:29:14;;;;;;;17.83;9.67;;;6.80;99.90;;;;;;5051869;28;20270;-70
2024/03/01 03:31:43;;;;;;;22.47;12.00;;;6.80;99.90;;;;;;5055583;28;20159;-69
2024/03/01 03:34:11;;;;;;;22.57;11.20;;;6.80;99.90;;;;;;5052220;28;20206;-70
2024/03/01 03:36:36;;;;;;;17.47;10.20;;;6.90;99.90;;;;;;5055644;28;20433;-70
2024/03/01 03:39:02;;;;;;;14.83;10.70;;;7.00;99.90;;;;;;5055789;28;20772;-70
2024/03/01 03:41:28;;;;;;;20.90;10.07;;;6.90;99.90;;;;;;5055819;28;20661;-70
2024/03/01 03:43:53;;;;;;;17.57;9.60;;;7.00;99.90;;;;;;5055678;28;20174;-70
2024/03/01 03:46:19;;;;;;;16.07;10.30;;;7.00;99.90;;;;;;5055942;28;20572;-69
2024/03/01 03:48:44;;;;;;;20.43;9.07;;;6.90;99.90;;;;;;5055679;28;20186;-69
2024/03/01 03:51:10;;;;;;;14.90;9.47;;;7.00;99.90;;;;;;5054405;28;20459;-69
2024/03/01 03:53:35;;;;;;;13.17;8.13;;;7.00;99.90;;;;;;5055438;28;20527;-70
2024/03/01 03:56:01;;;;;;;17.50;11.03;;;7.00;99.90;;;;;;5055641;28;20654;-70
2024/03/01 03:58:27;;;;;;;15.30;7.93;;;7.10;99.90;;;;;;5055683;28;20708;-69
2024/03/01 04:00:55;;;;;;;19.77;10.60;;;7.10;99.90;;;;;;5055408;28;20452;-70
2024/03/01 04:03:20;;;;;;;14.73;8.80;;;7.00;99.90;;;;;;5053320;28;20254;-70
2024/03/01 04:05:46;;;;;;;17.20;8.97;;;7.10;99.90;;;;;;5052053;28;20500;-70
2024/03/01 04:08:11;;;;;;;13.10;8.70;;;7.10;99.90;;;;;;5055186;28;20747;-70
2024/03/01 04:10:37;;;;;;;18.73;10.43;;;7.20;99.90;;;;;;5055570;28;20179;-69
2024/03/01 04:13:05;;;;;;;12.93;8.60;;;7.20;99.90;;;;;;5055253;28;20217;-70
2024/03/01 04:15:30;;;;;;;22.00;11.63;;;7.20;99.90;;;;;;5055438;28;20167;-69
2024/03/01 04:17:56;;;;;;;16.70;9.63;;;7.30;99.90;;;;;;5055234;28;20486;-70
2024/03/01 04:20:21;;;;;;;13.77;8.13;;;7.40;99.90;;;;;;5055187;28;20205;-70
2024/03/01 04:22:47;;;;;;;14.50;8.90;;;7.40;99.90;;;;;;5054923;28;20167;-69
2024/03/01 04:25:12;;;;;;;15.50;8.63;;;7.40;99.90;;;;;;5055237;28;20199;-70
2024/03/01 04:27:38;;;;;;;13.43;8.73;;;7.30;99.90;;;;;;5053832;28;20669;-70
2024/03/01 04:30:09;;;;;;;16.77;9.10;;;7.20;99.90;;;;;;5055080;28;20171;-70
2024/03/01 04:32:35;;;;;;;17.53;8.80;;;7.20;99.90;;;;;;5054972;28;20171;-69
2024/03/01 04:35:00;;;;;;;17.03;9.17;;;7.20;99.90;;;;;;5048475;28;20425;-70
2024/03/01 04:37:26;;;;;;;11.33;6.93;;;7.10;99.90;;;;;;5054651;28;20436;-69
2024/03/01 04:39:51;;;;;;;16.20;7.40;;;7.10;99.90;;;;;;5054829;28;20202;-70
2024/03/01 04:42:17;;;;;;;18.00;9.43;;;7.10;99.90;;;;;;5053100;28;20171;-69
2024/03/01 04:44:43;;;;;;;16.63;7.90;;;7.20;99.90;;;;;;5054800;28;20167;-69
2024/03/01 04:47:10;;;;;;;12.73;7.47;;;7.30;99.90;;;;;;5054601;28;20417;-69
2024/03/01 04:49:35;;;;;;;13.43;8.77;;;7.40;99.90;;;;;;5054711;28;20250;-70
2024/03/01 04:52:01;;;;;;;18.27;8.80;;;7.40;99.90;;;;;;5054307;28;20466;-70
2024/03/01 04:54:27;;;;;;;17.30;8.60;;;7.40;99.90;;;;;;5054767;28;20677;-70
2024/03/01 04:56:52;;;;;;;14.50;8.97;;;7.50;99.90;;;;;;5054483;28;20175;-70
2024/03/01 04:59:18;;;;;;;15.77;7.60;;;7.50;99.90;;;;;;5054290;28;20520;-70
2024/03/01 05:01:43;;;;;;;13.37;8.23;;;7.60;99.90;;;;;;5054061;28;20194;-69
2024/03/01 05:04:09;;;;;;;15.13;8.87;;;7.60;99.90;;;;;;5051367;28;20175;-70
2024/03/01 05:06:38;;;;;;;12.93;8.10;;;7.60;99.90;;;;;;5049590;28;20163;-70
2024/03/01 05:09:06;;;;;;;14.40;7.80;;;7.60;99.90;;;;;;5054011;28;20913;-70
2024/03/01 05:11:34;;;;;;;15.33;9.37;;;7.60;99.90;;;;;;5054135;28;20985;-70
2024/03/01 05:14:00;;;;;;;21.67;8.37;;;7.60;99.90;;;;;;5053767;28;20408;-70
2024/03/01 05:16:26;;;;;;;14.13;8.17;;;7.50;99.90;;;;;;5053842;28;20492;-70
2024/03/01 05:18:51;;;;;;;15.40;9.33;;;7.60;99.90;;;;;;5053921;28;20488;-70
2024/03/01 05:21:17;;;;;;;17.27;7.63;;;7.50;99.90;;;;;;5053689;28;20195;-70
2024/03/01 05:23:43;;;;;;;10.67;7.07;;;7.50;99.90;;;;;;5053744;28;20167;-70
2024/03/01 05:26:09;;;;;;;14.13;8.00;;;7.60;99.90;;;;;;5053917;28;20159;-70
2024/03/01 05:28:35;;;;;;;13.53;9.27;;;7.60;99.90;;;;;;5053764;28;20183;-70
2024/03/01 05:31:01;;;;;;;15.10;8.90;;;7.60;99.90;;;;;;5053759;28;20455;-69
2024/03/01 05:33:26;;;;;;;14.30;8.60;;;7.60;99.90;;;;;;5053412;28;20206;-70
2024/03/01 05:35:53;;;;;;;11.03;7.03;;;7.60;99.90;;;;;;5050564;28;20495;-69
2024/03/01 05:38:18;;;;;;;16.73;9.50;;;7.60;99.90;;;;;;5051710;28;20191;-69
2024/03/01 05:40:44;;;;;;;15.73;8.40;;;7.60;99.90;;;;;;5053728;28;20963;-70
2024/03/01 05:43:09;;;;;;;15.67;8.97;;;7.60;99.90;;;;;;5053781;28;20207;-69
2024/03/01 05:45:35;;;;;;;15.10;8.07;;;7.70;99.90;;;;;;5053794;28;20167;-69
2024/03/01 05:48:01;;;;;;;10.60;7.80;;;7.80;99.90;;;;;;5053635;28;20183;-69
2024/03/01 05:50:27;;;;;;;11.90;7.77;;;7.90;99.90;;;;;;5053482;28;20463;-68
2024/03/01 05:52:52;;;;;;;5.53;3.67;;;7.90;99.90;;;;;;5052803;28;20191;-69
2024/03/01 05:55:18;;;;;;;5.00;3.17;;;7.90;99.90;;;;;;5053716;28;20218;-68
2024/03/01 05:57:46;;;;;;;3.40;2.10;;;8.00;99.90;;;;;;5053539;28;20190;-68
2024/03/01 06:00:18;;;;;;;3.10;2.40;;;8.10;99.90;;;;;;5053376;28;20191;-68
2024/03/01 06:02:47;;;;;;;2.83;2.53;;;8.10;99.90;;;;;;5052060;28;20412;-69
2024/03/01 06:05:14;;;;;;;1.80;1.30;;;8.20;99.90;;;;;;5045370;28;20413;-68
2024/03/01 06:07:39;;;;;;;1.53;1.20;;;8.20;99.90;;;;;;5053184;28;20421;-68
2024/03/01 06:10:05;;;;;;;4.40;1.57;;;8.20;99.90;;;;;;5053174;28;20761;-68
2024/03/01 06:12:31;;;;;;;3.30;2.10;;;8.30;99.90;;;;;;5049330;28;20182;-68
2024/03/01 06:14:56;;;;;;;1.77;1.40;;;8.30;99.90;;;;;;5050220;28;20437;-69
2024/03/01 06:17:22;;;;;;;1.80;1.47;;;8.30;99.90;;;;;;5052845;28;20190;-68
2024/03/01 06:19:47;;;;;;;4.33;1.70;;;8.30;99.90;;;;;;5052919;28;20209;-68
2024/03/01 06:22:13;;;;;;;1.87;1.67;;;8.30;99.90;;;;;;5052713;28;20353;-69
2024/03/01 06:24:38;;;;;;;1.77;1.30;;;8.30;99.90;;;;;;5052874;28;20173;-68
2024/03/01 06:27:04;;;;;;;1.80;1.30;;;8.30;99.90;;;;;;5051505;28;20199;-68
2024/03/01 06:29:30;;;;;;;2.27;1.50;;;8.40;99.90;;;;;;5052837;28;20592;-68
2024/03/01 06:31:56;;;;;;;2.23;1.77;;;8.40;99.90;;;;;;5051452;28;20610;-68
2024/03/01 06:34:21;;;;;;;1.40;1.20;;;8.30;99.90;;;;;;5052734;28;20361;-68
2024/03/01 06:36:47;;;;;;;1.93;1.60;;;8.30;99.90;;;;;;5052603;28;20429;-68
2024/03/01 06:39:14;;;;;;;1.93;1.70;;;8.40;99.90;;;;;;5052535;28;20401;-69
2024/03/01 06:41:39;;;;;;;2.40;1.70;;;8.30;99.90;;;;;;5052387;28;20336;-68
2024/03/01 06:44:05;;;;;;;2.63;1.70;;;8.40;99.90;;;;;;5052702;28;20485;-69
2024/03/01 06:46:31;;;;;;;2.70;1.60;;;8.40;99.90;;;;;;5052379;28;20174;-69
2024/03/01 06:48:58;;;;;;;1.70;1.57;;;8.40;99.90;;;;;;5052436;28;20737;-69
2024/03/01 06:51:23;;;;;;;2.90;2.07;;;8.60;99.90;;;;;;5052400;28;20458;-68
2024/03/01 06:53:49;;;;;;;3.20;1.50;;;8.70;99.90;;;;;;5051916;28;20424;-68
2024/03/01 06:56:14;;;;;;;2.43;2.03;;;8.70;99.90;;;;;;5052290;28;20171;-68
2024/03/01 06:58:42;;;;;;;2.33;2.13;;;8.80;99.90;;;;;;5047001;28;20713;-69
2024/03/01 07:01:08;;;;;;;2.93;1.70;;;8.90;99.90;;;;;;5051909;28;20194;-69
2024/03/01 07:03:33;;;;;;;1.80;1.67;;;8.90;99.90;;;;;;5047876;28;20428;-68
2024/03/01 07:05:59;;;;;;;2.37;1.73;;;8.80;99.90;;;;;;5046953;28;20182;-69
2024/03/01 07:08:25;;;;;;;2.27;1.73;;;8.80;99.90;;;;;;5051773;28;20191;-68
2024/03/01 07:10:52;;;;;;;1.93;1.73;;;8.70;99.90;;;;;;5052070;28;20250;-68
2024/03/01 07:13:18;;;;;;;3.23;1.30;;;8.60;99.90;;;;;;5051881;28;20166;-69
2024/03/01 07:15:43;;;;;;;1.50;1.30;;;8.40;99.90;;;;;;5052072;28;20401;-68
2024/03/01 07:18:09;;;;;;;3.50;2.03;;;8.40;99.90;;;;;;5052012;28;20690;-68
2024/03/01 07:20:34;;;;;;;2.80;1.67;;;8.60;99.90;;;;;;5051907;28;20624;-69
2024/03/01 07:23:00;;;;;;;1.87;1.60;;;8.70;99.90;;;;;;5051775;28;20653;-68
2024/03/01 07:25:25;;;;;;;2.20;1.70;;;8.80;99.90;;;;;;5051862;28;20163;-69
2024/03/01 07:27:51;;;;;;;1.40;1.30;;;8.80;99.90;;;;;;5050553;28;20191;-68
2024/03/01 07:30:17;;;;;;;1.70;1.60;;;9.00;99.90;;;;;;5051899;28;20538;-68
2024/03/01 07:32:43;;;;;;;3.30;1.37;;;9.10;99.90;;;;;;5051513;28;20638;-69
2024/03/01 07:35:08;;;;;;;2.43;1.90;;;9.20;99.90;;;;;;5051769;28;20177;-69
2024/03/01 07:37:34;;;;;;;1.30;1.20;;;9.20;99.90;;;;;;5051719;28;20266;-69
2024/03/01 07:40:00;;;;;;;2.70;1.40;;;9.30;99.90;;;;;;5050319;28;20199;-68
2024/03/01 07:42:26;;;;;;;2.10;1.80;;;9.20;99.90;;;;;;5051364;28;20163;-70
2024/03/01 07:44:52;;;;;;;2.70;2.17;;;9.30;99.90;;;;;;5051848;28;20769;-68
2024/03/01 07:47:18;;;;;;;1.87;1.70;;;9.40;99.90;;;;;;5051942;28;20476;-68
2024/03/01 07:49:43;;;;;;;1.40;1.10;;;9.50;99.90;;;;;;5051789;28;20889;-68
2024/03/01 07:52:09;;;;;;;1.63;1.30;;;9.50;99.90;;;;;;5051370;28;20193;-68
2024/03/01 07:54:34;;;;;;;1.60;1.40;;;9.60;99.90;;;;;;5051574;28;20181;-69
2024/03/01 07:57:00;;;;;;;3.73;1.77;;;9.80;99.90;;;;;;5051487;28;20271;-69
2024/03/01 07:59:26;;;;;;;2.13;1.53;;;9.80;99.90;;;;;;5051915;28;20194;-68
2024/03/01 08:01:51;;;;;;;2.00;1.77;;;9.90;99.90;;;;;;5051148;28;20195;-68
2024/03/01 08:04:17;;;;;;;2.30;1.90;;;10.10;99.90;;;;;;5045992;28;20429;-69
2024/03/01 08:06:43;;;;;;;2.40;1.93;;;10.20;99.90;;;;;;5043995;28;20280;-67
2024/03/01 08:09:16;;;;;;;1.53;1.20;;;10.10;99.90;;;;;;5043871;28;20545;-67
2024/03/01 08:11:44;;;;;;;2.33;1.40;;;10.30;99.90;;;;;;5051100;28;20185;-69
2024/03/01 08:14:22;;;;;;;2.70;1.50;;;10.50;99.90;;;;;;5051071;28;20420;-67
2024/03/01 08:16:54;;;;;;;2.13;1.87;;;10.60;99.90;;;;;;5033351;28;20492;-67
2024/03/01 08:19:21;;;;;;;5.73;2.23;;;10.50;99.90;;;;;;5035132;28;20394;-67
2024/03/01 08:21:47;;;;;;;1.57;1.40;;;10.40;99.90;;;;;;5034761;28;20508;-67
2024/03/01 08:24:22;;;;;;;2.10;1.50;;;10.60;99.90;;;;;;5034982;28;20406;-67
2024/03/01 08:26:48;;;;;;;1.93;1.70;;;10.60;99.90;;;;;;5034872;28;21027;-68
2024/03/01 08:29:13;;;;;;;1.93;1.57;;;10.50;99.90;;;;;;5034607;28;20486;-68
2024/03/01 08:31:39;;;;;;;1.83;1.53;;;10.60;99.90;;;;;;5035060;28;20178;-70
2024/03/01 08:34:21;;;;;;;3.00;1.83;;;10.60;99.90;;;;;;5034604;28;20446;-70
2024/03/01 08:36:49;;;;;;;1.70;1.20;;;10.40;99.90;;;;;;5033373;28;20218;-70
2024/03/01 08:39:16;;;;;;;4.43;1.80;;;10.40;99.90;;;;;;5034545;28;20406;-70
2024/03/01 08:41:47;;;;;;;3.20;1.67;;;10.40;99.90;;;;;;5034584;28;20453;-70
2024/03/01 08:44:43;;;;;;;2.27;1.60;;;10.60;99.90;;;;;;5034653;28;20811;-70
2024/03/01 08:47:20;;;;;;;1.43;1.33;;;10.60;99.90;;;;;;5034584;28;20453;-70
2024/03/01 08:50:12;;;;;;;2.00;1.90;;;10.50;99.90;;;;;;5033181;28;20407;-69
2024/03/01 08:52:38;;;;;;;2.57;1.70;;;10.40;99.90;;;;;;5032719;28;20877;-69
2024/03/01 08:55:09;;;;;;;2.63;1.27;;;10.40;99.90;;;;;;5054087;28;20508;-70
2024/03/01 08:57:38;;;;;;;2.30;1.40;;;10.60;99.90;;;;;;5052529;28;20569;-69
2024/03/01 09:00:37;;;;;;;2.70;2.03;;;10.80;99.90;;;;;;5054459;28;20456;-69
2024/03/01 09:03:04;;;;;;;1.23;1.00;;;10.90;99.90;;;;;;5040883;28;20449;-69
2024/03/01 09:05:30;;;;;;;2.30;1.37;;;11.40;99.90;;;;;;5044300;28;20461;-69
2024/03/01 09:08:00;;;;;;;2.50;1.10;;;11.40;99.90;;;;;;5051104;28;20520;-69
2024/03/01 09:10:33;;;;;;;1.10;1.00;;;11.90;99.90;;;;;;5053857;28;20498;-70
2024/03/01 09:13:00;;;;;;;1.20;1.00;;;12.60;99.90;;;;;;5053773;28;20460;-70
2024/03/01 09:15:30;;;;;;;1.27;0.93;;;13.60;99.90;;;;;;5052626;28;20429;-70
2024/03/01 09:17:55;;;;;;;1.00;0.80;;;14.60;99.90;;;;;;5053711;28;20429;-70
2024/03/01 09:20:36;;;;;;;1.03;0.67;;;15.50;99.90;;;;;;5053873;28;20985;-70
2024/03/01 09:23:05;;;;;;;1.77;0.80;;;16.40;99.10;;;;;;5053515;28;20171;-71
2024/03/01 09:25:45;;;;;;;1.40;0.77;;;17.30;92.10;;;;;;5054041;28;20441;-67
2024/03/01 09:28:12;;;;;;;0.90;0.77;;;18.30;83.60;;;;;;5052875;28;20425;-68
2024/03/01 09:30:38;;;;;;;1.63;1.10;;;18.90;75.40;;;;;;5053338;28;20406;-67
2024/03/01 09:33:10;;;;;;;1.97;1.07;;;19.80;75.90;;;;;;5043833;28;20471;-67
2024/03/01 09:35:36;;;;;;;1.57;0.80;;;20.20;62.60;;;;;;5051962;28;20421;-68
2024/03/01 09:38:02;;;;;;;1.40;0.90;;;20.60;62.00;;;;;;5053154;28;20477;-67
2024/03/01 09:40:34;;;;;;;1.00;0.67;;;20.10;55.90;;;;;;5053046;28;20515;-67
2024/03/01 09:43:25;;;;;;;0.87;0.70;;;19.70;55.70;;;;;;5052619;28;20417;-67
2024/03/01 09:46:06;;;;;;;1.20;0.90;;;18.80;55.60;;;;;;5053016;28;20488;-67
2024/03/01 09:48:59;;;;;;;2.40;0.70;;;17.40;58.20;;;;;;5053012;28;20532;-67
2024/03/01 09:51:37;;;;;;;7.60;1.33;;;16.00;61.80;;;;;;5051956;28;20415;-67
2024/03/01 09:54:18;;;;;;;0.73;0.57;;;16.10;68.30;;;;;;5052767;28;20421;-67
2024/03/01 09:57:04;;;;;;;1.73;0.70;;;16.10;68.30;;;;;;5052012;28;20524;-67
2024/03/01 09:59:59;;;;;;;0.87;0.70;;;16.20;72.40;;;;;;5053230;28;20429;-67
2024/03/01 10:02:46;;;;;;;1.80;0.90;;;18.20;66.60;;;;;;5052769;28;20427;-67
2024/03/01 10:05:37;;;;;;;0.87;0.60;;;19.90;58.50;;;;;;5042085;28;20420;-68
2024/03/01 10:08:40;;;;;;;1.07;0.77;;;21.80;54.40;;;;;;5041867;28;20429;-68
2024/03/01 10:11:39;;;;;;;1.00;0.70;;;23.80;49.10;;;;;;5079787;28;20461;-67
2024/03/01 10:14:44;;;;;;;1.03;0.80;;;25.00;45.80;;;;;;5048633;28;20501;-68
2024/03/01 10:17:44;;;;;;;1.30;0.90;;;25.70;40.30;;;;;;5042676;28;20483;-68
2024/03/01 10:20:24;;;;;;;0.90;0.60;;;25.40;38.20;;;;;;5052676;28;20876;-68
2024/03/01 10:23:08;;;;;;;0.80;0.60;;;24.80;37.30;;;;;;5052072;28;20504;-68
2024/03/01 10:26:06;;;;;;;1.10;0.70;;;23.50;36.50;;;;;;5049615;28;20410;-67
2024/03/01 10:29:03;;;;;;;2.40;0.60;;;21.80;38.40;;;;;;5050694;28;20460;-67
2024/03/01 10:32:11;;;;;;;0.90;0.60;;;20.60;40.00;;;;;;5052295;28;20405;-66
2024/03/01 10:35:19;;;;;;;0.80;0.67;;;18.30;41.70;;;;;;5052464;28;20496;-68
2024/03/01 10:37:44;;;;;;;0.80;0.60;;;17.00;44.60;;;;;;5052195;28;20425;-68
2024/03/01 10:40:17;;;;;;;0.80;0.60;;;15.90;46.90;;;;;;5052171;28;20445;-68
2024/03/01 10:43:12;;;;;;;0.80;0.70;;;15.40;49.40;;;;;;5051660;28;20775;-67
2024/03/01 10:45:56;;;;;;;1.27;0.63;;;15.10;51.20;;;;;;5052195;28;20401;-67
2024/03/01 10:48:21;;;;;;;1.30;0.70;;;15.50;53.20;;;;;;5044477;28;20439;-68
2024/03/01 10:50:57;;;;;;;4.20;0.60;;;16.20;53.30;;;;;;5043895;28;20417;-68
2024/03/01 10:53:33;;;;;;;0.97;0.70;;;17.60;52.50;;;;;;5052060;28;20181;-68
2024/03/01 10:56:03;;;;;;;0.80;0.60;;;19.10;51.00;;;;;;5051949;28;20567;-68
2024/03/01 10:58:48;;;;;;;0.90;0.60;;;20.40;48.00;;;;;;5051992;28;20932;-68
2024/03/01 11:01:33;;;;;;;0.90;0.70;;;21.50;46.30;;;;;;5052012;28;20448;-68
2024/03/01 11:04:14;;;;;;;0.90;0.60;;;22.70;43.80;;;;;;5047242;28;20475;-68
2024/03/01 11:06:42;;;;;;;1.00;0.70;;;23.90;42.00;;;;;;5050924;28;20405;-68
2024/03/01 11:09:32;;;;;;;1.00;0.60;;;25.10;39.80;;;;;;5051686;28;20436;-67
2024/03/01 11:12:21;;;;;;;0.90;0.70;;;25.00;37.50;;;;;;5031620;28;20458;-68
2024/03/01 11:15:12;;;;;;;1.20;0.70;;;24.90;37.20;;;;;;5047115;28;20439;-67
2024/03/01 11:17:39;;;;;;;0.90;0.70;;;24.30;37.10;;;;;;5050481;28;20481;-67
2024/03/01 11:20:12;;;;;;;0.90;0.77;;;24.20;37.30;;;;;;5051666;28;20483;-67
2024/03/01 11:22:42;;;;;;;1.20;0.80;;;24.10;36.40;;;;;;5051542;28;20409;-67
2024/03/01 11:25:12;;;;;;;1.20;0.87;;;24.30;36.60;;;;;;5051744;28;20401;-67
2024/03/01 11:27:47;;;;;;;1.20;0.97;;;24.10;35.80;;;;;;5051644;28;20429;-68
2024/03/01 11:30:19;;;;;;;0.87;0.70;;;24.20;35.80;;;;;;5051660;28;20757;-68
2024/03/01 11:32:47;;;;;;;1.70;0.80;;;24.60;36.80;;;;;;5042213;28;20469;-68
2024/03/01 11:35:29;;;;;;;1.00;0.77;;;25.10;36.40;;;;;;5049692;28;20417;-68
2024/03/01 11:38:26;;;;;;;2.20;1.10;;;25.20;35.10;;;;;;5051271;28;20432;-67
2024/03/01 11:41:13;;;;;;;1.00;0.90;;;24.70;36.20;;;;;;5051232;28;20519;-68
2024/03/01 11:43:51;;;;;;;1.20;0.93;;;24.80;36.50;;;;;;5042741;28;20794;-68
2024/03/01 11:47:02;;;;;;;1.07;0.93;;;24.80;35.90;;;;;;5046770;28;20416;-68
2024/03/01 11:49:42;;;;;;;0.90;0.80;;;24.40;35.50;;;;;;5051114;28;20413;-68
2024/03/01 11:52:34;;;;;;;1.73;0.90;;;23.80;36.00;;;;;;5053928;28;20460;-68
2024/03/01 11:55:32;;;;;;;1.10;1.00;;;24.70;36.80;;;;;;5039125;28;20420;-67
2024/03/01 11:58:19;;;;;;;1.10;0.90;;;25.00;35.10;;;;;;5047820;28;20516;-68
2024/03/01 12:01:14;;;;;;;2.43;1.20;;;24.60;34.90;;;;;;5054965;28;20519;-68
2024/03/01 12:03:58;;;;;;;1.40;1.20;;;23.60;34.90;;;;;;5051328;28;20971;-68
2024/03/01 12:06:48;;;;;;;1.40;0.90;;;23.10;36.20;;;;;;5041229;28;20912;-68
2024/03/01 12:09:28;;;;;;;1.37;0.93;;;22.60;37.60;;;;;;5049961;28;20480;-67
2024/03/01 12:12:09;;;;;;;1.30;1.20;;;22.90;37.00;;;;;;5046734;28;20412;-67
2024/03/01 12:14:56;;;;;;;2.30;1.03;;;22.70;37.00;;;;;;5054698;28;20411;-67
2024/03/01 12:17:52;;;;;;;0.90;0.80;;;22.10;37.30;;;;;;5054617;28;20464;-67
2024/03/01 12:20:19;;;;;;;1.87;1.10;;;21.90;36.70;;;;;;5040695;28;20515;-68
2024/03/01 12:22:56;;;;;;;2.73;1.00;;;21.70;37.20;;;;;;5054569;28;20406;-68
2024/03/01 12:25:25;;;;;;;1.10;0.90;;;20.80;37.20;;;;;;5054600;28;20459;-68
2024/03/01 12:28:33;;;;;;;2.97;2.03;;;19.70;38.00;;;;;;5054467;28;20440;-68
2024/03/01 12:31:35;;;;;;;1.00;0.83;;;19.60;40.00;;;;;;5047290;28;20409;-68
2024/03/01 12:34:22;;;;;;;1.10;1.00;;;19.10;40.60;;;;;;5034737;28;20893;-68
2024/03/01 12:37:00;;;;;;;2.23;1.30;;;19.00;41.10;;;;;;5034514;28;20988;-68
2024/03/01 12:39:28;;;;;;;1.40;1.00;;;18.40;41.10;;;;;;5034728;28;20394;-68
2024/03/01 12:42:05;;;;;;;3.30;1.30;;;18.00;41.00;;;;;;5034313;28;20468;-68
2024/03/01 12:45:00;;;;;;;10.33;1.20;;;17.60;42.20;;;;;;5033312;28;20421;-68
2024/03/01 12:47:42;;;;;;;1.63;0.97;;;17.60;43.20;;;;;;5034514;28;20637;-68
2024/03/01 12:50:33;;;;;;;0.80;0.63;;;17.70;43.70;;;;;;5034500;28;20848;-69
2024/03/01 12:53:16;;;;;;;3.20;1.00;;;17.80;43.80;;;;;;5034022;28;20484;-69
2024/03/01 12:56:04;;;;;;;1.97;0.80;;;18.10;43.30;;;;;;5034432;28;20481;-69
2024/03/01 12:58:51;;;;;;;1.17;0.70;;;18.10;43.00;;;;;;5034269;28;20433;-68
2024/03/01 13:01:40;;;;;;;1.10;0.80;;;18.20;43.00;;;;;;5034239;28;20445;-68
2024/03/01 13:04:33;;;;;;;1.20;0.97;;;17.70;43.20;;;;;;5033434;28;20792;-68
2024/03/01 13:07:00;;;;;;;2.27;0.87;;;17.70;43.10;;;;;;5046271;28;20425;-68
2024/03/01 13:09:31;;;;;;;1.03;0.90;;;17.70;43.40;;;;;;5051838;28;20927;-68